createdAt,value
2023-01-26T00:01:16.733Z,38.33
2023-01-26T00:06:14.667Z,38.28
2023-01-26T00:08:43.319Z,38.25
2023-01-26T00:11:13.555Z,38.21
2023-01-26T00:13:40.826Z,38.25
2023-01-26T00:16:09.700Z,38.21
2023-01-26T00:18:38.540Z,38.16
2023-01-26T00:21:06.669Z,38.25
2023-01-26T00:23:35.864Z,38.20
2023-01-26T00:26:06.326Z,38.25
2023-01-26T00:28:33.566Z,38.31
2023-01-26T00:31:04.523Z,38.29
2023-01-26T00:33:31.783Z,38.42
2023-01-26T00:35:58.925Z,38.45
2023-01-26T00:38:26.021Z,38.59
2023-01-26T00:40:54.466Z,38.54
2023-01-26T00:43:21.817Z,38.62
2023-01-26T00:45:49.085Z,38.57
2023-01-26T00:48:16.545Z,38.63
2023-01-26T00:50:43.641Z,38.64
2023-01-26T00:53:11.104Z,38.69
2023-01-26T00:55:38.240Z,38.49
2023-01-26T00:58:08.015Z,38.41
2023-01-26T01:00:37.287Z,38.35
2023-01-26T01:03:05.243Z,38.33
2023-01-26T01:05:33.240Z,38.44
2023-01-26T01:08:00.598Z,38.38
2023-01-26T01:10:27.738Z,38.38
2023-01-26T01:12:55.240Z,38.49
2023-01-26T01:15:23.966Z,38.52
2023-01-26T01:17:51.500Z,38.57
2023-01-26T01:20:19.064Z,38.52
2023-01-26T01:22:46.180Z,38.50
2023-01-26T01:25:13.367Z,38.57
2023-01-26T01:27:40.437Z,38.64
2023-01-26T01:30:09.237Z,38.80
2023-01-26T01:32:38.175Z,38.73
2023-01-26T01:35:06.204Z,38.66
2023-01-26T01:37:33.260Z,38.72
2023-01-26T01:40:00.379Z,38.81
2023-01-26T01:42:27.966Z,38.72
2023-01-26T01:45:32.171Z,38.70
2023-01-26T01:48:04.959Z,38.55
2023-01-26T01:50:37.121Z,38.60
2023-01-26T01:53:05.887Z,38.47
2023-01-26T01:55:32.972Z,38.55
2023-01-26T01:58:03.358Z,38.45
2023-01-26T02:00:30.676Z,38.51
2023-01-26T02:03:19.266Z,38.59
2023-01-26T02:05:54.027Z,38.67
2023-01-26T02:08:24.209Z,38.66
2023-01-26T02:10:55.758Z,38.57
2023-01-26T02:13:24.579Z,38.53
2023-01-26T02:15:51.976Z,38.55
2023-01-26T02:18:20.514Z,38.50
2023-01-26T02:20:51.009Z,38.77
2023-01-26T02:23:26.488Z,38.71
2023-01-26T02:26:10.301Z,38.77
2023-01-26T02:28:38.672Z,38.90
2023-01-26T02:31:06.344Z,38.81
2023-01-26T02:33:34.231Z,38.75
2023-01-26T02:36:02.301Z,38.75
2023-01-26T02:38:40.495Z,38.69
2023-01-26T02:41:12.484Z,38.56
2023-01-26T02:43:40.271Z,38.54
2023-01-26T02:46:07.428Z,38.55
2023-01-26T02:48:34.531Z,38.62
2023-01-26T02:51:01.644Z,38.57
2023-01-26T02:53:28.719Z,38.55
2023-01-26T02:55:56.061Z,38.61
2023-01-26T02:58:24.647Z,38.57
2023-01-26T03:00:51.805Z,38.46
2023-01-26T03:03:23.790Z,38.47
2023-01-26T03:05:51.287Z,38.22
2023-01-26T03:08:18.576Z,37.81
2023-01-26T03:10:45.705Z,37.11
2023-01-26T03:13:12.905Z,36.61
2023-01-26T03:15:41.331Z,36.73
2023-01-26T03:18:10.355Z,36.68
2023-01-26T03:20:38.421Z,36.82
2023-01-26T03:23:08.623Z,36.86
2023-01-26T03:25:36.356Z,36.87
2023-01-26T03:28:03.451Z,36.88
2023-01-26T03:30:30.575Z,36.86
2023-01-26T03:32:58.983Z,37.10
2023-01-26T03:35:26.063Z,36.99
2023-01-26T03:37:53.161Z,36.93
2023-01-26T03:40:20.304Z,37.06
2023-01-26T03:42:47.620Z,37.10
2023-01-26T03:45:14.700Z,37.17
2023-01-26T03:47:41.827Z,37.29
2023-01-26T03:50:11.652Z,37.23
2023-01-26T03:52:38.921Z,37.42
2023-01-26T03:55:06.870Z,37.55
2023-01-26T03:57:33.994Z,37.40
2023-01-26T04:00:01.059Z,37.49
2023-01-26T04:02:28.143Z,37.58
2023-01-26T04:04:55.974Z,37.73
2023-01-26T04:07:24.360Z,38.00
2023-01-26T04:09:51.407Z,38.24
2023-01-26T04:12:18.564Z,38.20
2023-01-26T04:14:49.419Z,38.30
2023-01-26T04:17:18.332Z,38.15
2023-01-26T04:19:45.823Z,38.09
2023-01-26T04:22:12.883Z,37.99
2023-01-26T04:24:41.299Z,37.91
2023-01-26T04:27:08.379Z,38.25
2023-01-26T04:29:35.451Z,38.06
2023-01-26T04:32:02.541Z,38.17
2023-01-26T04:34:29.612Z,38.18
2023-01-26T04:36:56.775Z,38.17
2023-01-26T04:39:23.858Z,38.22
2023-01-26T04:41:52.268Z,38.33
2023-01-26T04:44:19.378Z,38.17
2023-01-26T04:46:46.468Z,38.21
2023-01-26T04:49:13.661Z,38.06
2023-01-26T04:51:40.881Z,38.12
2023-01-26T04:54:08.147Z,37.99
2023-01-26T04:56:36.224Z,38.12
2023-01-26T04:59:07.716Z,38.04
2023-01-26T05:01:36.885Z,37.91
2023-01-26T05:04:05.407Z,37.81
2023-01-26T05:06:33.104Z,37.59
2023-01-26T05:09:00.248Z,37.90
2023-01-26T05:11:27.356Z,37.77
2023-01-26T05:13:54.440Z,37.61
2023-01-26T05:16:23.091Z,38.37
2023-01-26T05:18:50.166Z,37.78
2023-01-26T05:21:17.323Z,38.02
2023-01-26T05:23:44.455Z,37.66
2023-01-26T05:26:11.569Z,37.91
2023-01-26T05:28:38.656Z,37.76
2023-01-26T05:31:05.823Z,37.75
2023-01-26T05:33:34.289Z,37.74
2023-01-26T05:36:05.380Z,37.71
2023-01-26T05:38:32.802Z,37.86
2023-01-26T05:40:59.902Z,37.80
2023-01-26T05:43:27.015Z,37.92
2023-01-26T05:45:54.126Z,37.88
2023-01-26T05:48:21.214Z,38.00
2023-01-26T05:50:49.680Z,38.09
2023-01-26T05:53:16.863Z,38.07
2023-01-26T05:55:44.021Z,38.06
2023-01-26T05:58:11.115Z,38.16
2023-01-26T06:00:38.213Z,38.36
2023-01-26T06:03:05.298Z,38.27
2023-01-26T06:05:32.471Z,38.22
2023-01-26T06:08:00.913Z,37.99
2023-01-26T06:10:28.008Z,38.60
2023-01-26T06:12:55.098Z,38.78
2023-01-26T06:15:22.187Z,38.79
2023-01-26T06:17:49.297Z,38.66
2023-01-26T06:20:16.864Z,38.57
2023-01-26T06:22:43.978Z,38.74
2023-01-26T06:25:12.385Z,38.68
2023-01-26T06:27:39.510Z,38.62
2023-01-26T06:30:08.376Z,38.50
2023-01-26T06:32:35.514Z,38.39
2023-01-26T06:35:02.639Z,38.44
2023-01-26T06:37:29.693Z,39.17
2023-01-26T06:39:56.759Z,38.95
2023-01-26T06:42:25.191Z,38.95
2023-01-26T06:44:52.288Z,38.87
2023-01-26T06:47:19.354Z,38.68
2023-01-26T06:49:46.488Z,38.57
2023-01-26T06:52:25.385Z,38.47
2023-01-26T06:54:53.187Z,38.10
2023-01-26T06:57:20.324Z,37.92
2023-01-26T06:59:48.720Z,37.80
2023-01-26T07:02:18.747Z,37.66
2023-01-26T07:04:46.074Z,37.72
2023-01-26T07:07:13.183Z,37.63
2023-01-26T07:09:40.691Z,37.60
2023-01-26T07:12:08.204Z,37.91
2023-01-26T07:14:35.456Z,37.59
2023-01-26T07:17:03.971Z,37.42
2023-01-26T07:19:31.143Z,37.38
2023-01-26T07:21:58.248Z,38.37
2023-01-26T07:24:25.718Z,38.76
2023-01-26T07:26:52.880Z,39.11
2023-01-26T07:29:19.957Z,39.21
2023-01-26T07:31:47.287Z,38.95
2023-01-26T07:34:15.919Z,38.71
2023-01-26T07:36:43.184Z,38.60
2023-01-26T07:39:10.286Z,38.79
2023-01-26T07:41:37.428Z,38.71
2023-01-26T07:44:09.396Z,38.67
2023-01-26T07:46:36.541Z,38.66
2023-01-26T07:49:03.635Z,38.75
2023-01-26T07:51:32.039Z,38.54
2023-01-26T07:53:59.297Z,38.51
2023-01-26T07:56:26.512Z,38.87
2023-01-26T07:58:54.590Z,38.54
2023-01-26T08:01:22.191Z,38.52
2023-01-26T08:03:50.942Z,36.14
2023-01-26T08:06:18.167Z,35.21
2023-01-26T08:08:47.412Z,35.18
2023-01-26T08:11:14.473Z,34.23
2023-01-26T08:13:41.539Z,34.47
2023-01-26T08:16:10.848Z,35.04
2023-01-26T08:18:38.211Z,35.27
2023-01-26T08:21:05.669Z,34.57
2023-01-26T08:23:33.054Z,34.28
2023-01-26T08:26:03.284Z,34.45
2023-01-26T08:28:30.420Z,34.05
2023-01-26T08:31:04.177Z,34.03
2023-01-26T08:33:31.510Z,34.11
2023-01-26T08:36:01.296Z,34.31
2023-01-26T08:38:29.918Z,34.36
2023-01-26T08:40:57.084Z,34.35
2023-01-26T08:43:25.702Z,34.54
2023-01-26T08:45:53.180Z,34.73
2023-01-26T08:48:20.578Z,34.94
2023-01-26T08:50:47.936Z,34.92
2023-01-26T08:53:15.052Z,35.08
2023-01-26T08:55:42.128Z,35.28
2023-01-26T08:58:09.199Z,35.33
2023-01-26T09:00:37.639Z,35.44
2023-01-26T09:03:06.098Z,35.37
2023-01-26T09:05:35.055Z,35.46
2023-01-26T09:08:02.209Z,35.65
2023-01-26T09:10:29.676Z,35.82
2023-01-26T09:12:57.270Z,36.06
2023-01-26T09:15:24.863Z,36.02
2023-01-26T09:17:53.421Z,36.16
2023-01-26T09:20:20.540Z,36.32
2023-01-26T09:22:47.788Z,36.23
2023-01-26T09:25:15.088Z,36.24
2023-01-26T09:27:42.298Z,36.23
2023-01-26T09:30:10.941Z,36.58
2023-01-26T09:32:38.081Z,37.01
2023-01-26T09:35:07.362Z,37.02
2023-01-26T09:37:34.523Z,37.10
2023-01-26T09:40:01.635Z,37.01
2023-01-26T09:42:44.925Z,37.00
2023-01-26T09:45:24.272Z,37.04
2023-01-26T09:48:15.956Z,37.21
2023-01-26T09:50:51.625Z,37.03
2023-01-26T09:53:25.606Z,36.96
2023-01-26T09:55:54.694Z,37.09
2023-01-26T09:58:31.917Z,37.19
2023-01-26T10:01:01.228Z,37.06
2023-01-26T10:03:33.230Z,37.08
2023-01-26T10:06:11.502Z,37.13
2023-01-26T10:08:38.893Z,37.39
2023-01-26T10:11:14.986Z,37.40
2023-01-26T10:13:46.020Z,37.18
2023-01-26T10:16:14.355Z,37.06
2023-01-26T10:18:51.486Z,36.97
2023-01-26T10:21:22.463Z,36.87
2023-01-26T10:23:50.875Z,36.76
2023-01-26T10:26:20.108Z,36.82
2023-01-26T10:28:48.871Z,36.91
2023-01-26T10:31:17.874Z,36.63
2023-01-26T10:33:53.031Z,36.35
2023-01-26T10:36:22.016Z,36.40
2023-01-26T10:38:49.907Z,36.33
2023-01-26T10:41:24.755Z,36.18
2023-01-26T10:43:53.887Z,36.13
2023-01-26T10:46:32.615Z,36.09
2023-01-26T10:49:01.717Z,36.03
2023-01-26T10:51:32.231Z,36.10
2023-01-26T10:54:22.044Z,36.11
2023-01-26T10:56:52.163Z,35.95
2023-01-26T10:59:31.905Z,36.16
2023-01-26T11:02:02.021Z,35.87
2023-01-26T11:04:30.066Z,35.78
2023-01-26T11:07:23.809Z,35.96
2023-01-26T11:09:53.400Z,35.81
2023-01-26T11:12:21.726Z,35.93
2023-01-26T11:18:37.624Z,36.34
2023-01-26T11:21:10.121Z,36.30
2023-01-26T11:23:58.774Z,36.38
2023-01-26T11:27:08.708Z,36.30
2023-01-26T11:30:04.775Z,36.67
2023-01-26T11:32:44.055Z,36.53
2023-01-26T11:35:20.179Z,36.54
2023-01-26T11:37:53.955Z,36.49
2023-01-26T11:40:31.866Z,36.83
2023-01-26T11:43:22.709Z,37.01
2023-01-26T11:46:13.188Z,37.11
2023-01-26T11:48:51.211Z,37.13
2023-01-26T11:51:29.286Z,37.21
2023-01-26T11:54:12.388Z,37.22
2023-01-26T11:56:49.338Z,37.17
2023-01-26T11:59:21.307Z,37.05
2023-01-26T12:01:53.986Z,36.98
2023-01-26T12:04:22.306Z,37.07
2023-01-26T12:06:55.374Z,37.15
2023-01-26T12:09:27.881Z,37.13
2023-01-26T12:12:01.940Z,37.24
2023-01-26T12:14:36.269Z,37.20
2023-01-26T12:17:20.638Z,37.21
2023-01-26T12:19:55.345Z,37.07
2023-01-26T12:22:28.565Z,37.23
2023-01-26T12:25:18.513Z,37.23
2023-01-26T12:27:56.388Z,37.16
2023-01-26T12:30:34.021Z,37.41
2023-01-26T12:33:01.383Z,37.52
2023-01-26T12:35:47.657Z,37.49
2023-01-26T12:38:19.348Z,37.53
2023-01-26T12:40:57.376Z,37.52
2023-01-26T12:43:41.566Z,37.65
2023-01-26T12:46:10.297Z,37.31
2023-01-26T12:48:43.506Z,37.34
2023-01-26T12:51:15.528Z,37.69
2023-01-26T12:53:52.293Z,37.50
2023-01-26T12:56:23.862Z,37.49
2023-01-26T12:58:54.018Z,37.46
2023-01-26T13:01:24.012Z,37.90
2023-01-26T13:03:55.196Z,37.38
2023-01-26T13:06:24.275Z,37.57
2023-01-26T13:09:01.840Z,37.64
2023-01-26T13:11:43.948Z,37.73
2023-01-26T13:14:34.276Z,37.93
2023-01-26T13:17:34.613Z,37.50
2023-01-26T13:20:16.187Z,37.62
2023-01-26T13:22:43.354Z,37.47
2023-01-26T13:25:17.261Z,37.09
2023-01-26T13:27:46.340Z,37.20
2023-01-26T13:30:34.621Z,36.84
2023-01-26T13:33:10.155Z,36.52
2023-01-26T13:35:38.004Z,36.41
2023-01-26T13:38:14.311Z,36.05
2023-01-26T13:40:44.496Z,36.21
2023-01-26T13:43:26.834Z,36.22
2023-01-26T13:46:19.483Z,36.13
2023-01-26T13:48:48.740Z,36.03
2023-01-26T13:51:18.777Z,36.20
2023-01-26T13:54:02.527Z,36.11
2023-01-26T13:56:32.500Z,36.47
2023-01-26T13:59:09.638Z,36.30
2023-01-26T14:01:46.273Z,36.34
2023-01-26T14:04:15.961Z,36.55
2023-01-26T14:06:47.397Z,36.45
2023-01-26T14:09:15.213Z,36.65
2023-01-26T14:11:43.044Z,36.88
2023-01-26T14:14:23.344Z,37.04
2023-01-26T14:16:51.824Z,37.19
2023-01-26T14:19:21.316Z,37.24
2023-01-26T14:21:51.133Z,37.10
2023-01-26T14:24:19.899Z,37.24
2023-01-26T14:26:48.435Z,37.25
2023-01-26T14:29:20.940Z,37.22
2023-01-26T14:31:48.651Z,37.16
2023-01-26T14:34:21.263Z,37.21
2023-01-26T14:36:49.237Z,37.16
2023-01-26T14:39:18.378Z,37.08
2023-01-26T14:41:46.527Z,37.06
2023-01-26T14:44:14.164Z,37.19
2023-01-26T14:46:52.604Z,37.01
2023-01-26T14:49:25.311Z,37.11
2023-01-26T14:51:57.017Z,37.08
2023-01-26T14:54:29.128Z,37.09
2023-01-26T14:56:57.377Z,37.14
2023-01-26T14:59:32.758Z,37.24
2023-01-26T15:02:19.778Z,37.35
2023-01-26T15:04:51.714Z,37.26
2023-01-26T15:07:34.777Z,37.38
2023-01-26T15:10:03.206Z,37.47
2023-01-26T15:12:33.926Z,37.52
2023-01-26T15:15:02.035Z,37.50
2023-01-26T15:17:35.790Z,37.36
2023-01-26T15:20:11.786Z,37.36
2023-01-26T15:22:39.139Z,37.42
2023-01-26T15:25:17.732Z,37.39
2023-01-26T15:27:50.902Z,37.50
2023-01-26T15:30:24.437Z,37.64
2023-01-26T15:32:51.807Z,36.95
2023-01-26T15:35:23.513Z,36.77
2023-01-26T15:38:00.522Z,36.76
2023-01-26T15:40:28.073Z,36.67
2023-01-26T15:43:14.377Z,36.69
2023-01-26T15:45:48.443Z,36.66
2023-01-26T15:48:15.552Z,36.64
2023-01-26T15:50:44.145Z,36.82
2023-01-26T15:53:13.714Z,36.67
2023-01-26T15:55:41.639Z,36.71
2023-01-26T15:58:08.732Z,36.77
2023-01-26T16:00:36.282Z,36.71
2023-01-26T16:03:11.168Z,36.84
2023-01-26T16:05:38.245Z,36.75
2023-01-26T16:08:06.740Z,36.73
2023-01-26T16:10:33.900Z,36.55
2023-01-26T16:13:01.046Z,36.64
2023-01-26T16:15:39.058Z,36.68
2023-01-26T16:18:06.204Z,36.42
2023-01-26T16:20:34.043Z,36.74
2023-01-26T16:23:01.139Z,36.73
2023-01-26T16:25:31.471Z,36.75
2023-01-26T16:28:00.175Z,36.82
2023-01-26T16:30:27.288Z,36.77
2023-01-26T16:32:54.355Z,36.80
2023-01-26T16:35:22.713Z,36.67
2023-01-26T16:37:50.521Z,36.63
2023-01-26T16:40:18.824Z,36.46
2023-01-26T16:42:49.937Z,36.53
2023-01-26T16:45:18.956Z,36.74
2023-01-26T16:47:48.981Z,36.42
2023-01-26T16:50:16.691Z,36.21
2023-01-26T16:52:43.807Z,36.18
2023-01-26T16:55:13.571Z,36.08
2023-01-26T16:57:41.581Z,36.08
2023-01-26T17:00:14.464Z,36.20
2023-01-26T17:02:42.601Z,36.08
2023-01-26T17:05:14.175Z,36.17
2023-01-26T17:07:41.349Z,36.07
2023-01-26T17:10:10.166Z,36.16
2023-01-26T17:12:37.300Z,36.51
2023-01-26T17:15:05.128Z,36.39
2023-01-26T17:17:33.927Z,36.40
2023-01-26T17:20:16.485Z,36.46
2023-01-26T17:22:43.908Z,36.51
2023-01-26T17:25:12.314Z,36.40
2023-01-26T17:27:41.177Z,36.50
2023-01-26T17:30:09.692Z,37.32
2023-01-26T17:32:38.293Z,37.53
2023-01-26T17:35:06.080Z,37.16
2023-01-26T17:37:33.340Z,36.70
2023-01-26T17:40:00.449Z,36.88
2023-01-26T17:42:27.542Z,36.97
2023-01-26T17:44:54.634Z,36.78
2023-01-26T17:47:21.737Z,36.88
2023-01-26T17:49:50.248Z,36.87
2023-01-26T17:52:17.396Z,36.63
2023-01-26T17:54:44.517Z,36.67
2023-01-26T17:57:11.725Z,36.87
2023-01-26T17:59:38.801Z,36.64
2023-01-26T18:02:05.923Z,36.65
2023-01-26T18:04:33.035Z,36.72
2023-01-26T18:07:01.495Z,36.67
2023-01-26T18:09:28.647Z,36.73
2023-01-26T18:11:55.785Z,36.93
2023-01-26T18:14:22.889Z,36.89
2023-01-26T18:16:50.015Z,36.86
2023-01-26T18:19:17.448Z,36.97
2023-01-26T18:21:44.653Z,37.06
2023-01-26T18:24:13.254Z,36.92
2023-01-26T18:26:40.396Z,37.12
2023-01-26T18:29:07.634Z,36.88
2023-01-26T18:31:36.983Z,36.79
2023-01-26T18:34:04.522Z,36.79
2023-01-26T18:36:32.154Z,36.69
2023-01-26T18:39:01.526Z,36.82
2023-01-26T18:41:30.246Z,36.77
2023-01-26T18:43:58.162Z,36.75
2023-01-26T18:46:26.760Z,36.88
2023-01-26T18:48:54.931Z,36.87
2023-01-26T18:51:22.034Z,37.01
2023-01-26T18:53:49.266Z,37.05
2023-01-26T18:56:17.115Z,37.17
2023-01-26T18:58:45.585Z,36.89
2023-01-26T19:01:14.312Z,36.92
2023-01-26T19:03:42.633Z,37.19
2023-01-26T19:06:09.743Z,37.05
2023-01-26T19:08:36.864Z,37.13
2023-01-26T19:11:04.305Z,36.99
2023-01-26T19:13:31.384Z,37.49
2023-01-26T19:16:00.539Z,37.37
2023-01-26T19:18:27.792Z,38.77
2023-01-26T19:20:55.742Z,38.79
2023-01-26T19:23:22.831Z,38.24
2023-01-26T19:25:50.019Z,38.29
2023-01-26T19:28:17.828Z,38.15
2023-01-26T19:30:44.994Z,37.96
2023-01-26T19:33:13.526Z,37.65
2023-01-26T19:35:40.698Z,37.65
2023-01-26T19:38:08.082Z,37.59
2023-01-26T19:40:35.492Z,37.70
2023-01-26T19:43:02.617Z,37.58
2023-01-26T19:45:29.754Z,37.78
2023-01-26T19:47:56.903Z,37.46
2023-01-26T19:50:25.368Z,37.62
2023-01-26T19:52:52.740Z,37.56
2023-01-26T19:55:19.966Z,37.60
2023-01-26T19:57:47.231Z,37.68
2023-01-26T20:00:15.296Z,37.60
2023-01-26T20:02:42.434Z,37.66
2023-01-26T20:05:10.404Z,37.70
2023-01-26T20:07:39.107Z,37.80
2023-01-26T20:10:06.670Z,37.77
2023-01-26T20:12:33.762Z,37.88
2023-01-26T20:15:00.999Z,37.93
2023-01-26T20:17:28.172Z,38.01
2023-01-26T20:19:55.457Z,37.79
2023-01-26T20:22:22.827Z,37.82
2023-01-26T20:24:51.255Z,37.69
2023-01-26T20:27:18.349Z,37.66
2023-01-26T20:29:45.444Z,37.68
2023-01-26T20:32:12.647Z,37.73
2023-01-26T20:34:41.087Z,37.62
2023-01-26T20:37:08.787Z,37.65
2023-01-26T20:39:35.891Z,37.48
2023-01-26T20:42:04.691Z,37.62
2023-01-26T20:44:31.811Z,37.51
2023-01-26T20:46:58.890Z,37.53
2023-01-26T20:49:26.015Z,37.61
2023-01-26T20:51:53.132Z,37.50
2023-01-26T20:54:20.288Z,37.57
2023-01-26T20:56:47.377Z,37.86
2023-01-26T20:59:15.875Z,37.81
2023-01-26T21:01:42.968Z,37.94
2023-01-26T21:04:10.080Z,37.90
2023-01-26T21:06:37.437Z,37.80
2023-01-26T21:09:04.810Z,37.91
2023-01-26T21:11:32.414Z,37.85
2023-01-26T21:14:00.656Z,37.73
2023-01-26T21:16:30.781Z,37.85
2023-01-26T21:18:57.927Z,37.60
2023-01-26T21:21:25.364Z,37.70
2023-01-26T21:23:52.598Z,37.61
2023-01-26T21:26:22.266Z,37.82
2023-01-26T21:28:51.888Z,37.48
2023-01-26T21:31:20.140Z,37.60
2023-01-26T21:33:49.635Z,37.38
2023-01-26T21:36:18.625Z,37.59
2023-01-26T21:38:47.127Z,37.55
2023-01-26T21:41:16.715Z,37.39
2023-01-26T21:43:43.814Z,37.71
2023-01-26T21:46:10.995Z,37.77
2023-01-26T21:48:38.111Z,37.78
2023-01-26T21:51:06.694Z,37.89
2023-01-26T21:53:33.853Z,37.76
2023-01-26T21:56:00.943Z,38.10
2023-01-26T21:58:28.084Z,37.81
2023-01-26T22:01:04.905Z,37.72
2023-01-26T22:03:32.026Z,37.73
2023-01-26T22:05:59.124Z,37.79
2023-01-26T22:08:27.540Z,37.75
2023-01-26T22:10:54.828Z,37.64
2023-01-26T22:13:22.334Z,37.70
2023-01-26T22:15:49.866Z,37.70
2023-01-26T22:18:17.746Z,37.59
2023-01-26T22:20:45.681Z,37.56
2023-01-26T22:23:12.792Z,37.61
2023-01-26T22:25:41.593Z,37.62
2023-01-26T22:28:08.684Z,37.73
2023-01-26T22:30:35.854Z,37.71
2023-01-26T22:33:03.108Z,37.72
2023-01-26T22:35:31.041Z,37.74
2023-01-26T22:37:58.866Z,37.84
2023-01-26T22:40:26.126Z,37.98
2023-01-26T22:42:54.641Z,38.14
2023-01-26T22:45:21.731Z,37.82
2023-01-26T22:47:49.216Z,38.07
2023-01-26T22:50:17.297Z,38.00
2023-01-26T22:52:44.386Z,37.87
2023-01-26T22:55:11.532Z,37.78
2023-01-26T22:57:38.639Z,37.81
2023-01-26T23:00:08.909Z,37.67
2023-01-26T23:02:36.037Z,37.84
2023-01-26T23:05:03.224Z,37.71
2023-01-26T23:07:30.328Z,37.71
2023-01-26T23:09:57.437Z,37.71
2023-01-26T23:12:24.505Z,37.63
2023-01-26T23:14:51.612Z,37.66
2023-01-26T23:17:20.116Z,37.70
2023-01-26T23:19:47.357Z,37.60
2023-01-26T23:22:14.436Z,37.70
2023-01-26T23:24:41.730Z,37.74
2023-01-26T23:27:08.940Z,37.90
2023-01-26T23:29:36.022Z,37.97
2023-01-26T23:32:03.194Z,37.98
2023-01-26T23:34:31.634Z,37.95
2023-01-26T23:36:58.725Z,38.17
2023-01-26T23:39:25.838Z,38.06
2023-01-26T23:41:52.909Z,37.76
2023-01-26T23:44:19.999Z,37.84
2023-01-26T23:46:47.280Z,37.82
2023-01-26T23:49:14.369Z,37.81
2023-01-26T23:51:42.795Z,37.84
2023-01-26T23:54:09.885Z,37.84
2023-01-26T23:56:37.014Z,37.86
2023-01-26T23:59:04.124Z,37.67
